Time;durP1;ratioP1;P1;durP2;ratioP2;P2;SDS_P1;SDS_P2;PMS_P1;PMS_P2;Temp;Humidity;BMP_temperature;BMP_pressure;BME280_temperature;BME280_humidity;BME280_pressure;Samples;Min_cycle;Max_cycle;Signal;HPM_P1;HPM_P2
2023/10/02 00:06:24;;;;;;;11.90;5.70;;;;;;;12.79;81.59;100923.32;133556;1299;22246;-77
2023/10/02 00:09:25;;;;;;;9.40;5.40;;;;;;;12.79;81.50;100923.62;133822;1300;22542;-76
2023/10/02 00:13:18;;;;;;;12.30;5.10;;;;;;;12.84;81.78;100922.23;133946;1300;23176;-76
2023/10/02 00:15:59;;;;;;;10.50;5.30;;;;;;;12.88;81.97;100917.71;133783;1301;22800;-76
2023/10/02 00:19:18;;;;;;;9.90;5.50;;;;;;;12.91;81.86;100918.83;133910;1298;22395;-76
2023/10/02 00:25:52;;;;;;;18.50;5.40;;;;;;;12.96;81.69;100912.61;133892;1300;22191;-76
2023/10/02 00:29:14;;;;;;;8.40;4.90;;;;;;;12.99;81.81;100909.59;133938;1298;23220;-76
2023/10/02 00:32:34;;;;;;;11.00;5.90;;;;;;;13.02;81.77;100912.66;133882;1300;22352;-76
2023/10/02 00:36:14;;;;;;;10.10;5.40;;;;;;;13.04;81.75;100909.23;133904;1298;22445;-76
2023/10/02 00:39:32;;;;;;;11.00;5.80;;;;;;;13.08;81.74;100901.06;133941;1300;23249;-77
2023/10/02 00:43:33;;;;;;;7.80;5.40;;;;;;;13.08;81.71;100896.48;133859;1303;22444;-77
2023/10/02 00:47:35;;;;;;;10.60;5.10;;;;;;;13.09;81.84;100901.84;133958;1297;22434;-77
2023/10/02 00:51:00;;;;;;;10.50;5.70;;;;;;;13.08;81.86;100905.35;133909;1303;23018;-76
2023/10/02 00:54:23;;;;;;;9.70;5.50;;;;;;;13.08;82.02;100906.20;133980;1297;22387;-76
2023/10/02 00:57:52;;;;;;;9.30;5.20;;;;;;;13.09;81.76;100904.14;134005;1297;23905;-76
2023/10/02 01:05:41;;;;;;;9.50;5.40;;;;;;;13.14;82.23;100914.97;134104;1300;23125;-77
2023/10/02 01:08:48;;;;;;;11.70;5.90;;;;;;;13.17;82.31;100919.80;133990;1297;22540;-76
2023/10/02 01:11:49;;;;;;;8.90;5.50;;;;;;;13.20;82.50;100915.41;134032;1297;22536;-76
2023/10/02 01:15:13;;;;;;;9.00;5.70;;;;;;;13.21;82.48;100917.91;134067;1298;22381;-76
2023/10/02 01:18:46;;;;;;;;;;;;;;;;;;;;;
2023/10/02 01:22:26;;;;;;;10.20;6.00;;;;;;;13.21;82.83;100924.33;133709;1303;22475;-76
2023/10/02 01:25:29;;;;;;;9.60;5.40;;;;;;;13.24;83.10;100922.06;134061;1301;22937;-76
2023/10/02 01:28:54;;;;;;;13.00;5.70;;;;;;;13.22;82.98;100922.78;134108;1297;22410;-76
2023/10/02 01:32:17;;;;;;;9.80;5.80;;;;;;;13.22;83.18;100915.69;134132;1295;22478;-76
2023/10/02 01:35:19;;;;;;;10.40;6.10;;;;;;;13.22;83.19;100914.45;133963;1301;22954;-76
2023/10/02 01:38:33;;;;;;;9.40;4.80;;;;;;;13.17;83.22;100916.17;134114;1297;23190;-76
2023/10/02 01:42:27;;;;;;;;;;;;;;;;;;;;;
2023/10/02 01:45:34;;;;;;;10.90;5.90;;;;;;;13.24;83.94;100915.66;134100;1297;22317;-76
2023/10/02 01:48:36;;;;;;;11.80;5.50;;;;;;;13.28;84.04;100915.98;134051;1304;22380;-76
2023/10/02 01:51:50;;;;;;;7.30;5.10;;;;;;;13.30;83.86;100924.42;134019;1297;23138;-76
2023/10/02 01:55:10;;;;;;;9.20;5.10;;;;;;;13.34;83.92;100926.20;134009;1294;22521;-77
2023/10/02 01:58:22;;;;;;;10.60;5.70;;;;;;;13.38;83.97;100929.46;133989;1297;23420;-76
2023/10/02 02:01:46;;;;;;;11.70;5.50;;;;;;;13.41;84.19;100928.20;134029;1297;23549;-76
2023/10/02 02:05:17;;;;;;;14.60;5.70;;;;;;;13.45;84.21;100926.95;134099;1298;22428;-77
2023/10/02 02:08:28;;;;;;;12.80;6.00;;;;;;;13.48;84.24;100921.70;134092;1297;22191;-76
2023/10/02 02:12:07;;;;;;;12.90;5.30;;;;;;;13.48;84.25;100921.42;133999;1297;22487;-77
2023/10/02 02:15:42;;;;;;;10.40;5.40;;;;;;;13.48;84.32;100921.17;133876;1297;23123;-76
2023/10/02 02:22:32;;;;;;;9.30;5.60;;;;;;;13.51;84.29;100920.07;133795;1298;22478;-77
2023/10/02 02:25:50;;;;;;;14.20;5.60;;;;;;;13.52;84.26;100921.08;133917;1300;23204;-76
2023/10/02 02:32:54;;;;;;;12.50;6.10;;;;;;;13.56;84.25;100921.64;133793;1304;22447;-76
2023/10/02 02:36:09;;;;;;;12.60;5.90;;;;;;;13.56;84.36;100918.84;133990;1297;22525;-76
2023/10/02 02:39:16;;;;;;;9.90;5.90;;;;;;;13.56;84.47;100918.60;134002;1298;22398;-77
2023/10/02 02:42:50;;;;;;;14.20;5.90;;;;;;;13.58;84.52;100921.31;134049;1300;22491;-77
2023/10/02 02:46:22;;;;;;;9.10;5.30;;;;;;;13.59;84.49;100921.01;133760;1298;22474;-76
2023/10/02 02:49:30;;;;;;;9.40;5.40;;;;;;;13.62;84.51;100917.84;133983;1300;22483;-76
2023/10/02 02:52:36;;;;;;;8.70;5.70;;;;;;;13.63;84.33;100915.55;134023;1300;25265;-76
2023/10/02 02:55:43;;;;;;;9.00;5.10;;;;;;;13.65;84.28;100917.81;133998;1299;22454;-76
2023/10/02 02:59:07;;;;;;;;;;;;;;;;;;;;;
2023/10/02 03:02:32;;;;;;;;;;;;;;;;;;;;;
2023/10/02 03:05:59;;;;;;;9.50;5.10;;;;;;;13.71;83.92;100909.05;133990;1297;23254;-76
2023/10/02 03:09:09;;;;;;;9.80;5.00;;;;;;;13.73;84.11;100905.48;134026;1298;22368;-76
2023/10/02 03:12:25;;;;;;;8.30;5.20;;;;;;;13.73;84.09;100915.70;133905;1300;23140;-76
2023/10/02 03:15:48;;;;;;;7.20;4.80;;;;;;;13.73;84.12;100916.47;134033;1297;22193;-76
2023/10/02 03:19:07;;;;;;;9.60;5.40;;;;;;;13.73;84.29;100915.90;133995;1304;22287;-77
2023/10/02 03:22:52;;;;;;;10.30;5.30;;;;;;;13.72;84.28;100914.58;133870;1297;22367;-76
2023/10/02 03:30:46;;;;;;;11.50;5.00;;;;;;;13.66;84.09;100911.64;133241;1304;22603;-77
2023/10/02 03:34:00;;;;;;;11.60;5.40;;;;;;;13.61;84.00;100907.05;134022;1299;22490;-76
2023/10/02 03:40:34;;;;;;;8.00;4.70;;;;;;;13.56;84.11;100904.27;134022;1298;22871;-76
2023/10/02 03:43:49;;;;;;;11.20;5.70;;;;;;;13.54;84.26;100902.53;134010;1298;22385;-76
2023/10/02 03:47:05;;;;;;;;;;;;;;;;;;;;;
2023/10/02 03:50:15;;;;;;;7.50;5.00;;;;;;;13.57;84.35;100899.52;134057;1298;22350;-76
2023/10/02 03:53:28;;;;;;;8.90;5.20;;;;;;;13.60;84.37;100899.77;134067;1297;22384;-76
2023/10/02 03:56:55;;;;;;;9.60;5.50;;;;;;;13.62;84.21;100901.67;133989;1297;22430;-77
2023/10/02 03:59:57;;;;;;;8.80;5.40;;;;;;;13.63;84.30;100903.45;133841;1300;23167;-76
2023/10/02 04:03:24;;;;;;;8.70;5.50;;;;;;;13.65;84.47;100908.40;134003;1297;22537;-77
2023/10/02 04:06:36;;;;;;;10.40;5.60;;;;;;;13.65;84.57;100907.30;134023;1301;23188;-77
2023/10/02 04:10:09;;;;;;;10.90;5.70;;;;;;;13.66;84.67;100909.38;133984;1297;23318;-76
2023/10/02 04:13:19;;;;;;;13.80;5.60;;;;;;;13.65;84.44;100917.23;133974;1287;22276;-76
2023/10/02 04:16:43;;;;;;;11.40;5.50;;;;;;;13.66;84.32;100916.44;133978;1299;22309;-76
2023/10/02 04:20:22;;;;;;;;;;;;;;;;;;;;;
2023/10/02 04:36:40;;;;;;;26.20;16.70;;;;;;;13.75;84.87;100908.52;133798;1298;22599;-77
2023/10/02 04:44:21;;;;;;;14.40;8.40;;;;;;;13.78;85.03;100910.83;134009;1297;22396;-78
2023/10/02 04:48:00;;;;;;;;;;;;;;;;;;;;;
2023/10/02 04:51:16;;;;;;;17.80;9.50;;;;;;;13.79;85.25;100917.70;133866;1299;23217;-78
2023/10/02 04:54:17;;;;;;;16.60;9.90;;;;;;;13.80;85.23;100918.90;133650;1297;22438;-79
2023/10/02 05:19:56;;;;;;;;;;;;;;;;;;;;;
2023/10/02 05:23:10;;;;;;;9.20;5.80;;;;;;;13.83;85.67;100924.36;133570;1298;23138;-79
2023/10/02 05:30:18;;;;;;;13.50;6.40;;;;;;;13.88;86.02;100922.23;133263;1291;22491;-77
2023/10/02 05:37:52;;;;;;;15.20;8.20;;;;;;;13.93;86.10;100914.94;133861;1300;22237;-78
2023/10/02 05:41:14;;;;;;;14.60;8.50;;;;;;;13.95;86.03;100914.91;133892;1297;23362;-78
2023/10/02 05:44:47;;;;;;;;;;;;;;;;;;;;;
2023/10/02 05:52:48;;;;;;;11.90;6.70;;;;;;;14.10;86.11;100935.49;133894;1297;22442;-77
2023/10/02 05:56:34;;;;;;;14.20;6.90;;;;;;;14.10;86.12;100934.16;133998;1297;22429;-77
2023/10/02 06:00:15;;;;;;;;;;;;;;;;;;;;;
2023/10/02 06:04:04;;;;;;;12.60;6.30;;;;;;;14.25;86.17;100942.20;133870;1302;22428;-77
2023/10/02 06:08:07;;;;;;;10.20;6.00;;;;;;;14.33;86.15;100938.44;134026;1297;22240;-77
2023/10/02 06:15:51;;;;;;;13.30;6.40;;;;;;;14.48;85.97;100948.73;133573;1297;22410;-77
2023/10/02 06:23:22;;;;;;;13.30;5.70;;;;;;;14.57;85.51;100957.16;133959;1297;22335;-77
2023/10/02 06:26:37;;;;;;;15.40;6.90;;;;;;;14.62;85.32;100960.02;133997;1297;22450;-78
2023/10/02 06:30:04;;;;;;;9.90;6.00;;;;;;;14.69;85.40;100960.65;134015;1297;22452;-79
2023/10/02 06:33:05;;;;;;;12.00;6.40;;;;;;;14.73;85.23;100961.24;134037;1297;23244;-77
2023/10/02 06:36:11;;;;;;;12.00;5.40;;;;;;;14.75;84.88;100965.24;134021;1298;22196;-77
2023/10/02 06:40:23;;;;;;;9.70;5.60;;;;;;;14.75;84.69;100965.04;134050;1297;22290;-77
2023/10/02 06:43:06;;;;;;;17.80;6.50;;;;;;;14.76;84.59;100962.13;133911;1297;23444;-75
2023/10/02 06:46:18;;;;;;;14.00;6.50;;;;;;;14.77;84.59;100968.88;133994;1297;23185;-76
2023/10/02 06:53:22;;;;;;;13.80;6.40;;;;;;;14.88;84.45;100960.61;133529;1300;360082;-73
2023/10/02 06:56:27;;;;;;;11.70;6.00;;;;;;;14.93;84.41;100964.13;134162;1298;23154;-73
2023/10/02 06:59:32;;;;;;;17.00;6.40;;;;;;;15.00;84.48;100963.81;134169;1301;22757;-74
2023/10/02 07:02:59;;;;;;;9.90;5.90;;;;;;;15.10;84.43;100959.33;134155;1298;22382;-73
2023/10/02 07:06:24;;;;;;;14.10;6.30;;;;;;;15.20;84.26;100959.39;134162;1298;22365;-73
2023/10/02 07:09:39;;;;;;;11.70;5.40;;;;;;;15.33;84.22;100959.95;134151;1304;22194;-73
2023/10/02 07:12:46;;;;;;;13.20;6.00;;;;;;;15.46;84.19;100958.39;134048;1298;23025;-73
2023/10/02 07:16:14;;;;;;;12.40;6.30;;;;;;;15.58;84.00;100961.19;134180;1304;23299;-74
2023/10/02 07:19:25;;;;;;;11.30;5.80;;;;;;;15.69;83.60;100960.91;134172;1298;22380;-74
2023/10/02 07:22:37;;;;;;;14.00;6.00;;;;;;;15.79;83.69;100961.84;134143;1297;22406;-74
2023/10/02 07:25:50;;;;;;;16.00;6.40;;;;;;;15.90;83.50;100955.39;133969;1297;22513;-73
2023/10/02 07:29:06;;;;;;;;;;;;;;;;;;;;;
2023/10/02 07:32:36;;;;;;;;;;;;;;;;;;;;;
2023/10/02 07:36:08;;;;;;;11.60;5.40;;;;;;;16.25;82.57;100944.17;133908;1298;23193;-73
2023/10/02 07:43:20;;;;;;;12.20;5.60;;;;;;;16.55;81.93;100951.48;133962;1297;22249;-74
2023/10/02 07:47:07;;;;;;;;;;;;;;;;;;;;;
2023/10/02 07:50:33;;;;;;;11.60;5.60;;;;;;;16.83;80.88;100952.78;134018;1298;22297;-74
2023/10/02 07:53:56;;;;;;;10.70;5.30;;;;;;;16.97;80.75;100952.37;134092;1298;22322;-74
2023/10/02 07:57:14;;;;;;;11.80;5.20;;;;;;;17.12;80.49;100951.60;133992;1301;22490;-74
2023/10/02 08:04:18;;;;;;;8.50;5.00;;;;;;;17.45;80.07;100956.84;132926;1305;22529;-74
2023/10/02 08:07:38;;;;;;;9.00;5.00;;;;;;;17.60;79.70;100952.08;133881;1297;22362;-75
2023/10/02 08:10:50;;;;;;;9.80;4.80;;;;;;;17.72;79.16;100951.61;133786;1300;22360;-74
2023/10/02 08:18:16;;;;;;;14.30;5.40;;;;;;;17.91;78.16;100950.84;133050;1304;22493;-74
2023/10/02 08:22:07;;;;;;;10.20;4.80;;;;;;;18.02;77.98;100953.33;133060;1298;22445;-73
2023/10/02 08:25:16;;;;;;;7.00;4.80;;;;;;;18.12;77.34;100955.66;133752;1299;22434;-74
2023/10/02 08:28:23;;;;;;;8.80;4.60;;;;;;;18.19;77.13;100956.98;133634;1297;22202;-74
2023/10/02 08:32:07;;;;;;;11.70;4.50;;;;;;;18.29;76.79;100960.12;133935;1297;22475;-73
2023/10/02 08:35:36;;;;;;;10.00;5.20;;;;;;;18.38;76.59;100956.61;133895;1300;22393;-73
2023/10/02 08:38:41;;;;;;;7.70;4.80;;;;;;;18.48;75.76;100956.42;133888;1297;22448;-72
2023/10/02 08:42:09;;;;;;;9.00;4.80;;;;;;;18.53;75.43;100953.52;133649;1304;22284;-72
2023/10/02 08:45:20;;;;;;;10.40;5.10;;;;;;;18.59;75.09;100952.02;133863;1300;23084;-72
2023/10/02 08:48:38;;;;;;;9.90;4.70;;;;;;;18.69;75.08;100956.38;133895;1297;22436;-72
2023/10/02 08:51:59;;;;;;;;;;;;;;;;;;;;;
2023/10/02 08:56:21;;;;;;;8.10;4.50;;;;;;;18.88;73.96;100959.08;133957;1304;22419;-72
2023/10/02 08:59:42;;;;;;;10.40;4.70;;;;;;;19.00;73.06;100950.81;134019;1300;23012;-72
2023/10/02 09:02:54;;;;;;;9.10;4.40;;;;;;;19.08;72.19;100950.98;134045;1304;23498;-72
2023/10/02 09:06:25;;;;;;;17.40;5.20;;;;;;;19.15;71.73;100950.24;134084;1299;22412;-73
2023/10/02 09:10:03;;;;;;;15.80;4.90;;;;;;;19.21;71.13;100942.80;134064;1297;22426;-72
2023/10/02 09:13:41;;;;;;;11.10;4.70;;;;;;;19.28;70.91;100941.16;133946;1305;23148;-72
2023/10/02 09:16:49;;;;;;;9.50;4.70;;;;;;;19.35;71.39;100938.40;134053;1303;22377;-73
2023/10/02 09:20:38;;;;;;;10.30;4.50;;;;;;;19.45;71.31;100936.71;133924;1297;22274;-73
2023/10/02 09:23:49;;;;;;;12.00;4.70;;;;;;;19.56;70.82;100932.79;133946;1299;22536;-73
2023/10/02 09:27:20;;;;;;;8.10;4.20;;;;;;;19.69;70.00;100928.77;133986;1297;22449;-73
2023/10/02 09:30:36;;;;;;;7.30;4.50;;;;;;;19.79;69.00;100927.63;133997;1298;22474;-72
2023/10/02 09:33:37;;;;;;;11.20;4.30;;;;;;;19.94;69.49;100923.38;134023;1297;22413;-72
2023/10/02 09:36:51;;;;;;;7.30;4.40;;;;;;;20.07;68.27;100921.25;133977;1298;22409;-73
2023/10/02 09:40:16;;;;;;;9.40;4.60;;;;;;;20.20;67.83;100924.45;133776;1297;22441;-73
2023/10/02 09:43:36;;;;;;;10.20;4.00;;;;;;;20.35;66.89;100920.85;133731;1303;22189;-73
2023/10/02 09:46:39;;;;;;;6.70;4.50;;;;;;;20.41;65.54;100915.36;134012;1297;22461;-73
2023/10/02 09:50:12;;;;;;;8.20;4.20;;;;;;;20.51;65.62;100906.05;133997;1304;22418;-73
2023/10/02 09:53:27;;;;;;;;;;;;;;;;;;;;;
2023/10/02 09:56:53;;;;;;;7.20;4.20;;;;;;;20.67;64.26;100903.48;133840;1297;22499;-73
2023/10/02 09:59:58;;;;;;;7.30;4.30;;;;;;;20.76;64.23;100895.02;133858;1304;22482;-73
2023/10/02 10:03:22;;;;;;;12.40;4.60;;;;;;;20.91;63.25;100892.86;133850;1297;22355;-73
2023/10/02 10:06:36;;;;;;;9.30;4.90;;;;;;;20.97;62.82;100895.77;133759;1301;22517;-72
2023/10/02 10:09:53;;;;;;;10.60;4.40;;;;;;;21.08;63.17;100895.59;133920;1298;23172;-72
2023/10/02 10:13:09;;;;;;;8.30;3.90;;;;;;;21.15;62.90;100899.60;133874;1297;22625;-72
2023/10/02 10:16:22;;;;;;;9.10;3.90;;;;;;;21.20;62.07;100899.45;133801;1303;22193;-72
2023/10/02 10:19:49;;;;;;;6.80;3.40;;;;;;;21.40;62.62;100892.93;133931;1300;22867;-73
2023/10/02 10:22:56;;;;;;;9.20;4.20;;;;;;;21.73;62.22;100886.77;133580;1300;22469;-74
2023/10/02 10:26:25;;;;;;;7.30;3.80;;;;;;;21.77;61.29;100887.27;133790;1297;23105;-73
2023/10/02 10:29:41;;;;;;;5.90;3.70;;;;;;;21.89;61.43;100887.24;133884;1300;22533;-73
2023/10/02 10:32:48;;;;;;;7.10;4.10;;;;;;;22.21;60.91;100878.04;133880;1297;22387;-74
2023/10/02 10:35:55;;;;;;;10.70;4.20;;;;;;;22.36;60.72;100873.17;133741;1303;22398;-73
2023/10/02 10:39:05;;;;;;;5.30;3.40;;;;;;;22.37;60.71;100874.98;133875;1297;22405;-73
2023/10/02 10:42:43;;;;;;;9.50;4.50;;;;;;;22.67;60.62;100874.48;133883;1297;23006;-74
2023/10/02 10:49:27;;;;;;;;;;;;;;;;;;;;;
2023/10/02 10:52:44;;;;;;;7.30;4.10;;;;;;;23.56;58.01;100849.01;133892;1298;22742;-74
2023/10/02 10:56:21;;;;;;;4.80;3.60;;;;;;;23.77;55.32;100843.23;133918;1300;22518;-73
2023/10/02 10:59:32;;;;;;;8.00;3.70;;;;;;;23.95;54.69;100840.65;133880;1304;22403;-74
2023/10/02 11:02:44;;;;;;;6.90;4.30;;;;;;;24.18;54.53;100833.02;133854;1300;22438;-74
2023/10/02 11:06:03;;;;;;;5.30;3.60;;;;;;;24.38;54.25;100824.75;133922;1300;22292;-74
2023/10/02 11:09:20;;;;;;;6.70;3.30;;;;;;;24.48;52.96;100822.48;133809;1297;22400;-74
2023/10/02 11:12:46;;;;;;;7.10;3.50;;;;;;;24.54;51.56;100824.81;133948;1304;22484;-73
2023/10/02 11:16:10;;;;;;;;;;;;;;;;;;;;;
2023/10/02 11:22:33;;;;;;;9.00;3.60;;;;;;;24.85;51.59;100819.56;133858;1287;22385;-73
2023/10/02 11:25:52;;;;;;;9.40;3.40;;;;;;;25.02;50.02;100817.52;133794;1300;22432;-75
2023/10/02 11:29:20;;;;;;;7.80;3.40;;;;;;;24.93;49.18;100808.73;133744;1303;22613;-74
2023/10/02 11:32:23;;;;;;;5.00;3.70;;;;;;;24.74;48.38;100809.27;133835;1295;22181;-74
2023/10/02 11:35:37;;;;;;;6.30;3.60;;;;;;;24.71;49.10;100806.98;133853;1299;22449;-74
2023/10/02 11:38:58;;;;;;;6.50;3.80;;;;;;;24.75;48.18;100804.67;133788;1298;22385;-74
2023/10/02 11:42:10;;;;;;;4.80;3.00;;;;;;;24.72;48.03;100805.70;133828;1297;23335;-74
2023/10/02 11:45:36;;;;;;;7.30;3.80;;;;;;;24.77;48.77;100803.91;133908;1298;22353;-74
2023/10/02 11:48:38;;;;;;;4.00;3.30;;;;;;;24.94;49.27;100806.16;133841;1301;23097;-74
2023/10/02 11:51:44;;;;;;;7.30;3.60;;;;;;;25.14;49.31;100804.49;133849;1302;22400;-73
2023/10/02 11:55:01;;;;;;;;;;;;;;;;;;;;;
2023/10/02 11:58:04;;;;;;;6.30;3.70;;;;;;;25.04;47.51;100800.79;133856;1298;22398;-74
2023/10/02 12:01:26;;;;;;;7.50;4.10;;;;;;;24.70;47.23;100794.89;133797;1297;22213;-75
2023/10/02 12:04:30;;;;;;;5.60;3.30;;;;;;;24.53;47.36;100789.42;133942;1300;22540;-75
2023/10/02 12:07:39;;;;;;;5.60;3.50;;;;;;;24.52;46.92;100786.70;133977;1300;22464;-75
2023/10/02 12:11:01;;;;;;;4.50;3.30;;;;;;;24.54;47.55;100788.29;133962;1301;22450;-75
2023/10/02 12:14:05;;;;;;;7.00;3.70;;;;;;;24.61;46.94;100784.23;134004;1297;22442;-75
2023/10/02 12:17:09;;;;;;;4.70;3.10;;;;;;;24.59;47.16;100780.20;134027;1299;22473;-74
2023/10/02 12:20:22;;;;;;;6.70;3.70;;;;;;;24.64;46.81;100772.20;134035;1298;22357;-74
2023/10/02 12:23:29;;;;;;;5.10;3.20;;;;;;;24.56;46.49;100769.34;134042;1296;23097;-70
2023/10/02 12:26:34;;;;;;;5.60;3.90;;;;;;;24.45;46.14;100764.41;134026;1297;22256;-70
2023/10/02 12:29:47;;;;;;;4.10;3.10;;;;;;;24.42;46.33;100761.28;134017;1290;23151;-70
2023/10/02 12:32:52;;;;;;;6.60;3.60;;;;;;;24.50;47.19;100759.79;134026;1299;22907;-70
2023/10/02 12:36:06;;;;;;;;;;;;;;;;;;;;;
2023/10/02 12:39:16;;;;;;;7.90;4.00;;;;;;;24.65;46.99;100755.27;133847;1297;22309;-70
2023/10/02 12:42:36;;;;;;;5.30;3.60;;;;;;;24.68;47.16;100757.13;133999;1301;22215;-71
2023/10/02 12:45:40;;;;;;;6.50;3.90;;;;;;;24.70;45.93;100757.38;133811;1300;22364;-70
2023/10/02 12:49:04;;;;;;;6.10;4.30;;;;;;;24.61;46.10;100753.86;133957;1298;22280;-71
2023/10/02 12:52:17;;;;;;;7.40;4.30;;;;;;;24.48;45.43;100750.95;133871;1304;22448;-69
2023/10/02 12:55:33;;;;;;;6.10;4.00;;;;;;;24.32;45.20;100747.50;133946;1300;22388;-69
2023/10/02 12:59:18;;;;;;;5.40;3.90;;;;;;;24.25;45.37;100745.80;133789;1303;22410;-69
2023/10/02 13:02:51;;;;;;;6.40;3.80;;;;;;;24.28;45.48;100740.80;133893;1300;22428;-70
2023/10/02 13:05:52;;;;;;;7.90;4.20;;;;;;;24.29;45.26;100738.48;133906;1298;22409;-70
2023/10/02 13:09:18;;;;;;;7.80;4.50;;;;;;;24.25;45.73;100735.22;133931;1297;22466;-69
2023/10/02 13:12:34;;;;;;;6.50;4.00;;;;;;;24.27;45.84;100732.34;133742;1301;22320;-71
2023/10/02 13:15:41;;;;;;;8.00;4.10;;;;;;;24.26;45.35;100729.80;133895;1297;22290;-70
2023/10/02 13:18:46;;;;;;;7.90;3.70;;;;;;;24.25;45.26;100723.56;133760;1301;22461;-70
2023/10/02 13:21:53;;;;;;;8.10;4.10;;;;;;;24.26;44.52;100721.95;133976;1299;22388;-70
2023/10/02 13:24:57;;;;;;;9.30;3.80;;;;;;;24.21;43.57;100719.08;133981;1300;22462;-70
2023/10/02 13:28:17;;;;;;;5.90;3.90;;;;;;;24.19;43.89;100713.02;133937;1300;22366;-70
2023/10/02 13:31:32;;;;;;;9.50;4.30;;;;;;;24.28;44.03;100710.16;133893;1304;23237;-69
2023/10/02 13:34:45;;;;;;;6.80;4.30;;;;;;;24.37;43.89;100707.19;133894;1298;23320;-70
2023/10/02 13:37:55;;;;;;;11.00;4.30;;;;;;;24.41;44.24;100700.27;133886;1300;22384;-70
2023/10/02 13:41:19;;;;;;;10.00;3.90;;;;;;;24.41;43.78;100695.97;133848;1301;22386;-70
2023/10/02 13:44:29;;;;;;;6.40;3.80;;;;;;;24.31;43.15;100697.64;133912;1304;22405;-69
2023/10/02 13:47:31;;;;;;;7.60;4.20;;;;;;;24.17;43.18;100695.92;133932;1301;22769;-69
2023/10/02 13:50:57;;;;;;;6.00;4.00;;;;;;;24.07;43.38;100695.34;133839;1304;23334;-70
2023/10/02 13:53:58;;;;;;;8.20;4.40;;;;;;;23.99;43.41;100691.36;133883;1301;22256;-70
2023/10/02 13:57:02;;;;;;;6.00;3.90;;;;;;;23.98;44.10;100693.51;134030;1297;22393;-70
2023/10/02 14:00:10;;;;;;;9.80;4.40;;;;;;;24.03;44.63;100693.48;133858;1300;22407;-69
2023/10/02 14:03:17;;;;;;;8.10;3.50;;;;;;;24.05;44.53;100696.66;134008;1300;22347;-70
2023/10/02 14:06:23;;;;;;;7.00;3.80;;;;;;;24.01;43.94;100691.15;133984;1302;22538;-68
2023/10/02 14:09:24;;;;;;;7.30;3.70;;;;;;;23.95;44.16;100687.65;133892;1296;22857;-69
2023/10/02 14:12:26;;;;;;;8.00;3.90;;;;;;;23.91;44.23;100684.58;134026;1299;22234;-70
2023/10/02 14:15:31;;;;;;;7.80;4.60;;;;;;;23.85;44.20;100682.73;134022;1302;22446;-69
2023/10/02 14:18:53;;;;;;;7.40;3.80;;;;;;;23.77;44.18;100686.52;133878;1297;22387;-69
2023/10/02 14:21:55;;;;;;;9.60;4.70;;;;;;;23.73;44.58;100688.45;133987;1302;22288;-69
2023/10/02 14:24:55;;;;;;;6.70;3.80;;;;;;;23.72;44.95;100686.09;134006;1298;22382;-69
2023/10/02 14:28:02;;;;;;;12.40;4.40;;;;;;;23.63;45.06;100682.70;134011;1297;22401;-69
2023/10/02 14:31:34;;;;;;;6.30;4.30;;;;;;;23.55;45.05;100676.08;133955;1304;22440;-69
2023/10/02 14:34:36;;;;;;;10.40;3.70;;;;;;;23.48;45.39;100671.45;133929;1298;22425;-69
2023/10/02 14:37:37;;;;;;;6.20;3.80;;;;;;;23.44;45.87;100669.84;134020;1304;22293;-70
2023/10/02 14:40:43;;;;;;;7.90;3.70;;;;;;;23.38;45.59;100667.44;133874;1299;23289;-70
2023/10/02 14:43:48;;;;;;;10.50;4.60;;;;;;;23.31;45.88;100664.00;134051;1298;23240;-69
2023/10/02 14:46:50;;;;;;;7.50;4.00;;;;;;;23.27;46.28;100665.53;134036;1301;22501;-70
2023/10/02 14:49:51;;;;;;;8.10;4.10;;;;;;;23.25;46.74;100665.44;133950;1302;23447;-69
2023/10/02 14:52:55;;;;;;;9.70;4.30;;;;;;;23.23;47.06;100666.10;134034;1304;22211;-69
2023/10/02 14:55:56;;;;;;;8.00;4.40;;;;;;;23.21;47.38;100663.90;133876;1298;22224;-69
2023/10/02 14:58:57;;;;;;;6.20;3.80;;;;;;;23.17;47.37;100664.05;134051;1304;22454;-69
2023/10/02 15:02:02;;;;;;;6.10;3.90;;;;;;;23.11;47.37;100662.13;134005;1294;22401;-69
2023/10/02 15:05:05;;;;;;;17.80;4.30;;;;;;;23.05;47.88;100655.52;134056;1299;22690;-71
2023/10/02 15:08:12;;;;;;;5.10;3.40;;;;;;;22.99;47.99;100649.10;133974;1297;22410;-70
2023/10/02 15:11:13;;;;;;;7.40;4.30;;;;;;;22.95;48.44;100646.65;133979;1301;22385;-69
2023/10/02 15:14:16;;;;;;;10.00;4.20;;;;;;;22.94;48.71;100645.75;134020;1297;22290;-70
2023/10/02 15:17:19;;;;;;;5.60;3.80;;;;;;;22.93;48.76;100646.01;134040;1304;22285;-70
2023/10/02 15:20:23;;;;;;;7.70;4.20;;;;;;;22.90;48.82;100649.07;134024;1298;22245;-70
2023/10/02 15:23:37;;;;;;;5.90;3.80;;;;;;;22.85;49.12;100649.61;133983;1304;22316;-70
2023/10/02 15:27:01;;;;;;;8.50;3.80;;;;;;;22.78;49.47;100648.20;134027;1297;22469;-69
2023/10/02 15:30:15;;;;;;;7.50;4.10;;;;;;;22.71;49.76;100653.17;134016;1298;22542;-69
2023/10/02 15:33:26;;;;;;;10.50;4.60;;;;;;;22.64;50.07;100652.80;133646;1299;22805;-70
2023/10/02 15:36:29;;;;;;;7.60;4.30;;;;;;;22.58;50.39;100651.52;134017;1297;22473;-70
2023/10/02 15:39:44;;;;;;;6.20;3.90;;;;;;;22.52;50.78;100651.58;133879;1298;22404;-69
2023/10/02 15:42:54;;;;;;;8.00;4.10;;;;;;;22.40;51.07;100649.94;134030;1298;22929;-68
2023/10/02 15:45:58;;;;;;;;;;;;;;;22.30;51.25;100650.70;133952;1298;22654;-69
2023/10/02 15:48:59;;;;;;;9.20;4.10;;;;;;;22.20;51.49;100655.34;134002;1298;22391;-70
2023/10/02 15:52:04;;;;;;;7.40;4.20;;;;;;;22.09;52.03;100656.27;134005;1300;22372;-70
2023/10/02 15:55:27;;;;;;;5.10;3.90;;;;;;;21.97;52.29;100653.57;133978;1300;22160;-69
2023/10/02 15:58:31;;;;;;;6.30;4.20;;;;;;;21.83;52.59;100651.54;134025;1298;22458;-70
2023/10/02 16:01:35;;;;;;;5.40;3.90;;;;;;;21.70;52.81;100650.26;133987;1301;22231;-69
2023/10/02 16:05:25;;;;;;;5.90;4.10;;;;;;;21.56;52.96;100648.48;133990;1300;22387;-68
2023/10/02 16:08:09;;;;;;;;;;;;;;;21.34;53.33;100655.89;133924;1297;22462;-69
2023/10/02 16:11:25;;;;;;;6.40;3.90;;;;;;;21.19;53.69;100653.02;133965;1298;22445;-70
2023/10/02 16:14:32;;;;;;;5.20;3.50;;;;;;;21.09;53.91;100655.73;133978;1300;22202;-69
2023/10/02 16:17:36;;;;;;;10.60;3.90;;;;;;;20.98;54.19;100658.51;134001;1302;22572;-69
2023/10/02 16:20:40;;;;;;;6.30;4.00;;;;;;;20.87;54.46;100655.91;134042;1304;22259;-69
2023/10/02 16:23:45;;;;;;;9.00;4.70;;;;;;;20.71;54.68;100659.45;134019;1304;23156;-70
2023/10/02 16:26:59;;;;;;;5.70;4.00;;;;;;;20.48;55.04;100661.68;134015;1298;22397;-68
2023/10/02 16:30:03;;;;;;;8.60;4.30;;;;;;;20.29;55.41;100661.48;133992;1298;22450;-69
2023/10/02 16:33:07;;;;;;;11.90;4.00;;;;;;;20.16;55.77;100662.80;134059;1297;22606;-69
2023/10/02 16:36:37;;;;;;;10.60;4.80;;;;;;;20.05;56.06;100660.54;133982;1298;23287;-69
2023/10/02 16:39:41;;;;;;;7.70;4.80;;;;;;;19.93;56.40;100658.61;133961;1297;23256;-69
2023/10/02 16:42:44;;;;;;;8.10;4.30;;;;;;;19.81;56.68;100655.83;134034;1303;22608;-69
2023/10/02 16:45:49;;;;;;;8.70;4.10;;;;;;;19.67;56.94;100653.84;134055;1290;22433;-69
2023/10/02 16:48:52;;;;;;;8.70;4.90;;;;;;;19.53;57.45;100653.42;134006;1304;22918;-69
2023/10/02 16:51:54;;;;;;;12.30;4.90;;;;;;;19.42;57.81;100653.50;133999;1300;22274;-69
2023/10/02 16:54:58;;;;;;;10.00;5.30;;;;;;;19.31;58.04;100656.31;134023;1300;23150;-69
2023/10/02 16:58:09;;;;;;;;;;;;;;;;;;;;;
2023/10/02 17:01:13;;;;;;;7.00;4.60;;;;;;;19.11;58.86;100659.54;133995;1297;22479;-69
2023/10/02 17:04:30;;;;;;;10.90;4.90;;;;;;;19.00;59.26;100662.86;133983;1297;22393;-69
2023/10/02 17:07:46;;;;;;;9.90;5.10;;;;;;;18.91;59.59;100664.23;133694;1301;22443;-69
2023/10/02 17:10:50;;;;;;;10.90;5.20;;;;;;;18.83;60.15;100668.38;133943;1301;23338;-69
2023/10/02 17:14:03;;;;;;;10.10;5.30;;;;;;;18.75;60.64;100669.23;134027;1304;22129;-68
2023/10/02 17:17:04;;;;;;;7.70;5.10;;;;;;;18.70;60.97;100669.84;134038;1300;22442;-69
2023/10/02 17:20:19;;;;;;;10.40;5.00;;;;;;;18.65;61.44;100669.75;133989;1303;22188;-69
2023/10/02 17:23:32;;;;;;;7.20;4.70;;;;;;;18.60;62.01;100666.06;134032;1297;22441;-68
2023/10/02 17:26:37;;;;;;;9.30;4.90;;;;;;;18.57;62.70;100664.33;133873;1301;22513;-69